Detalii statie VIITORUL MAILAT [00001CF8]

Toti senzorii

Date Temperatura solului [C]Precipitatii [mm]Voltaj baterie [mV]HC Air temperature [C]HC Relative humidity [%]Punctul de roua [C]
medieminmaxsumaultimamedieminmaxmediemediemin
2019-06-15 18:00:00 24.7 24.7 24.9 0 7284 31.39 27.94 32.76 100 31.3 27.9
2019-06-15 19:00:00 24.9 24.8 25 0 7264 27.46 26.98 28 100 27.4 26.9
2019-06-15 20:00:00 24.9 24.9 25 0 7118 26.16 25.22 27.08 100 26.1 25.2
2019-06-15 21:00:00 24.8 24.8 25 0 7020 24.76 23.85 25.37 100 24.7 23.8
2019-06-15 22:00:00 24.8 24.8 24.9 0 6992 22.68 22.3 23.05 100 22.6 22.3
2019-06-15 23:00:00 24.7 24.7 24.8 0 6972 21.58 20.98 22.15 100 21.5 20.9
2019-06-16 00:00:00 24.6 24.6 24.7 0 6962 21.15 20.83 21.45 100 21.1 20.8
2019-06-16 01:00:00 24.5 24.4 24.6 0 6962 20.55 19.97 20.83 100 20.5 19.9
2019-06-16 02:00:00 24.4 24.2 24.6 0 6962 19.29 18.45 20.08 100 19.2 18.4
2019-06-16 03:00:00 24.2 24.1 24.4 0 6952 18.72 18.24 19.37 100 18.6 18.2
2019-06-16 04:00:00 24.1 24 24.3 0 6942 18.85 18.47 19.06 100 18.8 18.4
2019-06-16 05:00:00 23.8 23.7 24 0 6942 18.39 17.84 19.18 100 18.3 17.8
2019-06-16 06:00:00 23.7 23.6 23.9 0 6922 18.93 18.05 20.23 100 18.8 18
2019-06-16 07:00:00 23.5 23.3 23.8 0 6952 21.93 20.57 23.18 100 21.8 20.5
2019-06-16 08:00:00 23.4 23.3 23.5 0 6992 25.22 23.79 26.62 100 25.1 23.7
2019-06-16 09:00:00 23.3 23.2 23.4 0 7060 27.41 26.64 28.29 100 27.3 26.6
2019-06-16 10:00:00 23.2 23.1 23.3 0 7246 29.27 28.29 30.15 100 29.2 28.2
2019-06-16 11:00:00 23.1 23.1 23.3 0 7274 30.77 29.77 32.57 99.91 30.7 29.7
2019-06-16 12:00:00 23.3 23.2 23.4 0 7274 33.71 31.59 36.16 98.5 33.3 31.5
2019-06-16 13:00:00 23.4 23.3 23.6 0 7274 34.31 32.64 36.01 99.3 34.1 32.6
2019-06-16 14:00:00 23.7 23.6 23.8 0 7274 34.76 32.91 37.61 99.58 34.6 32.9
2019-06-16 15:00:00 23.9 23.8 24.1 0 7274 34.27 31.94 35.95 99.88 34.1 31.9
2019-06-16 16:00:00 24.2 24 24.3 0 7274 34.53 33.25 36.29 100 34.4 33.2
2019-06-16 17:00:00 24.4 24.3 24.6 0 7284 32.56 31.93 33.56 100 32.5 31.9
2019-06-16 18:00:00 24.6 24.5 24.8 0 7274 32.84 30.75 33.41 99.96 32.7 30.7
2019-06-16 19:00:00 24.7 24.7 24.7 0 7254 27.71 27.17 29.27 100 27.6 27.1
2019-06-16 20:00:00 24.7 24.7 24.7 0 7118 26.99 25.03 28.3 100 26.9 25
2019-06-16 21:00:00 24.7 24.7 24.8 0 7020 23.65 22.71 24.36 100 23.6 22.7
2019-06-16 22:00:00 24.7 24.7 24.7 0 6972 22.48 21.95 22.87 100 22.4 21.9
2019-06-16 23:00:00 24.6 24.6 24.7 1.4 6972 20.91 19.8 22.63 100 20.8 19.8
2019-06-17 00:00:00 24.6 24.5 24.7 0 6972 19.82 19.58 20.16 100 19.7 19.5
2019-06-17 01:00:00 24.5 24.4 24.7 0 6952 19.51 19.36 19.89 100 19.4 19.3
2019-06-17 02:00:00 24.3 24.3 24.5 0 6942 19.34 19.06 19.51 100 19.3 19
2019-06-17 03:00:00 24.2 24.1 24.4 0 6942 19.13 18.81 19.39 100 19.1 18.8
2019-06-17 04:00:00 24.1 23.9 24.3 0 6932 19.31 19.01 19.48 100 19.2 19
2019-06-17 05:00:00 23.9 23.9 24 0 6932 18.47 18.13 18.94 100 18.4 18.1
2019-06-17 06:00:00 23.7 23.6 23.9 0 6932 18.27 18.06 18.57 100 18.2 18
2019-06-17 07:00:00 23.6 23.4 23.9 0 6952 19.11 18.63 19.59 100 19 18.6
2019-06-17 08:00:00 23.4 23.3 23.6 0 7088 21.5 19.83 22.96 100 21.4 19.8
2019-06-17 09:00:00 23.3 23.3 23.4 0 7226 22.01 21.46 22.71 100 21.9 21.4
2019-06-17 10:00:00 23.3 23.2 23.4 0 7284 22.99 22.3 23.75 100 22.9 22.3
2019-06-17 11:00:00 23.2 23.1 23.3 0 7294 22.51 22.14 23.33 100 22.4 22.1
2019-06-17 12:00:00 23.2 23.1 23.3 0 7284 24.11 22.96 25.36 100 24 22.9
2019-06-17 13:00:00 23 23 23.3 0 7284 27.52 25.72 29.74 100 27.4 25.7
2019-06-17 14:00:00 23.1 23 23.3 0 7284 29.25 27.4 30.77 100 29.2 27.4
2019-06-17 15:00:00 23.1 23 23.3 0 7284 28.84 27.66 30.08 100 28.8 27.6
2019-06-17 16:00:00 23.2 23.2 23.4 0 7294 28.82 27.38 30.49 100 28.7 27.3
2019-06-17 17:00:00 23.3 23.3 23.5 0 7284 29.52 28.52 31.12 100 29.4 28.5